WetterOnline ( https://www.wetteronline.at )

Wetter aktuell Fürstenzell

Aktuelles Wetter: Fürstenzell (480m)

6-stündlich | Neueste Meldungen
Ortszeit Temperatur Wetter
Di, 11.08. 2:00 20.4° C fast wolkenlos
Mo, 10.08. 20:00 27.4° C wolkenlos
Mo, 10.08. 14:00 29.8° C leicht bewölkt
Mo, 10.08. 8:00 20.2° C wolkenlos
Mo, 10.08. 2:00 19.4° C wolkenlos
So, 09.08. 20:00 26.9° C wolkenlos
So, 09.08. 14:00 28.9° C leicht bewölkt
So, 09.08. 8:00 20.1° C wolkenlos
Ortszeit Temperatur Wetter
Di, 11.08. 2:00 20.4° C fast wolkenlos
Di, 11.08. 1:50 20.4° C fast wolkenlos
Di, 11.08. 1:40 20.6° C wolkenlos
Di, 11.08. 1:30 20.8° C leicht bewölkt
Di, 11.08. 1:20 20.8° C leicht bewölkt
Di, 11.08. 1:10 21.0° C leicht bewölkt
Di, 11.08. 1:00 21.3° C wolkig
Di, 11.08. 0:30 21.5° C wolkenlos
Di, 11.08. 0:00 21.1° C wolkenlos
Mo, 10.08. 23:30 21.2° C wolkenlos
Mo, 10.08. 23:00 21.9° C fast wolkenlos
Ortszeit Relative Feuchte Sichtweite
Di, 11.08. 2:00 75% 40 km
Mo, 10.08. 20:00 50% 45 km
Mo, 10.08. 14:00 44% 40 km
Mo, 10.08. 8:00 76% 26 km
Mo, 10.08. 2:00 84% 24 km
So, 09.08. 20:00 50% 45 km
So, 09.08. 14:00 47% 20 km
So, 09.08. 8:00 70% 35 km
Ortszeit Relative Feuchte Sichtweite
Di, 11.08. 2:00 75% 40 km
Di, 11.08. 1:50 75% -
Di, 11.08. 1:40 75% -
Di, 11.08. 1:30 74% 40 km
Di, 11.08. 1:20 74% -
Di, 11.08. 1:10 73% -
Di, 11.08. 1:00 73% 40 km
Di, 11.08. 0:30 72% 40 km
Di, 11.08. 0:00 75% 40 km
Mo, 10.08. 23:30 75% 40 km
Mo, 10.08. 23:00 72% 40 km
Ortszeit Niederschlagsmenge Niederschlagsart
Di, 11.08. 2:00 0.0 l/m2 in 6 Std. -
Mo, 10.08. 20:00 0.1 l/m2 in 12 Std. Sprühregen
Mo, 10.08. 14:00 0.0 l/m2 in 6 Std. -
Mo, 10.08. 8:00 0.0 l/m2 in 12 Std. -
Mo, 10.08. 2:00 0.0 l/m2 in 6 Std. -
So, 09.08. 20:00 0.0 l/m2 in 12 Std. -
So, 09.08. 14:00 0.0 l/m2 in 6 Std. -
So, 09.08. 8:00 0.0 l/m2 in 12 Std. -
Ortszeit Niederschlagsmenge Niederschlagsart
Di, 11.08. 2:00 0.0 l/m2 in 1 Std. -
Di, 11.08. 1:50 keine Meldung -
Di, 11.08. 1:40 keine Meldung -
Di, 11.08. 1:30 0.0 l/m2 in 1 Std. -
Di, 11.08. 1:20 keine Meldung -
Di, 11.08. 1:10 keine Meldung -
Di, 11.08. 1:00 0.0 l/m2 in 1 Std. -
Di, 11.08. 0:30 0.0 l/m2 in 1 Std. -
Di, 11.08. 0:00 0.0 l/m2 in 1 Std. -
Mo, 10.08. 23:30 0.0 l/m2 in 1 Std. -
Mo, 10.08. 23:00 0.0 l/m2 in 1 Std. -
Ortszeit Stärke Spitze Richtung
km/h Bft. km/h Grad Sektor
Di, 11.08. 2:00 14 3 25 20° N
Mo, 10.08. 20:00 9 2 22 130° SO
Mo, 10.08. 14:00 7 2 25 90° O
Mo, 10.08. 8:00 7 2 14 50° NO
Mo, 10.08. 2:00 11 2 14 40° NO
So, 09.08. 20:00 6 1 17 230° SW
So, 09.08. 14:00 6 1 17 150° SO
So, 09.08. 8:00 7 2 14 50° NO
Ortszeit Stärke Spitze Richtung
km/h Bft. km/h Grad Sektor
Di, 11.08. 2:00 14 3 22 20° N
Di, 11.08. 1:50 14 3 - 20° N
Di, 11.08. 1:40 14 3 - 20° N
Di, 11.08. 1:30 14 3 22 20° N
Di, 11.08. 1:20 14 3 - 20° N
Di, 11.08. 1:10 14 3 - 30° NO
Di, 11.08. 1:00 17 3 22 40° NO
Di, 11.08. 0:30 18 3 22 30° NO
Di, 11.08. 0:00 18 3 22 20° N
Mo, 10.08. 23:30 18 3 22 20° N
Mo, 10.08. 23:00 17 3 20 10° N
Ortszeit Untergrenze Bedeckung Gattung
total tief tief mittel hoch
Di, 11.08. 2:00 9000 m 1/8 0/8 - - -
Mo, 10.08. 20:00 - 0/8 0/8 - - -
Mo, 10.08. 14:00 1500 m 2/8 2/8 - - -
Mo, 10.08. 8:00 10500 m 0/8 0/8 - - -
Mo, 10.08. 2:00 - 0/8 0/8 - - -
So, 09.08. 20:00 - 0/8 0/8 - - -
So, 09.08. 14:00 1500 m 3/8 3/8 - - -
So, 09.08. 8:00 - 0/8 0/8 - - -
Ortszeit Bedeckungsgrad in Achtel und Wolkenuntergrenze
Di, 11.08. 2:00 1(9000m)
Di, 11.08. 1:50 1(9000m)
Di, 11.08. 1:40 keine Wolken
Di, 11.08. 1:30 3(10500m) 3(10500m)
Di, 11.08. 1:20 3(10500m) 3(10500m)
Di, 11.08. 1:10 6(10500m) 6(10500m)
Di, 11.08. 1:00 2(10500m) 7(10500m)
Di, 11.08. 0:30 3(10500m)
Di, 11.08. 0:00 keine Wolken
Mo, 10.08. 23:30 keine Wolken
Mo, 10.08. 23:00 1(10500m)
Ortszeit Luftdruck NN (hPa) Tendenz (hPa in 3 Std.)
Di, 11.08. 2:00 1016 + 0,3
Mo, 10.08. 20:00 1012 - 0,5
Mo, 10.08. 14:00 1013 - 0,7
Mo, 10.08. 8:00 1015 + 0,1
Mo, 10.08. 2:00 1016 - 0,4
So, 09.08. 20:00 1015 - 1,0
So, 09.08. 14:00 1016 - 1,1
So, 09.08. 8:00 1019 + 0,7
Ortszeit Luftdruck NN (hPa) Tendenz (hPa in 3 Std.)
Di, 11.08. 2:00 1016 + 0,3
Di, 11.08. 1:50 1016 keine Meldung
Di, 11.08. 1:40 1015 keine Meldung
Di, 11.08. 1:30 1015 + 0,2
Di, 11.08. 1:20 1015 keine Meldung
Di, 11.08. 1:10 1015 keine Meldung
Di, 11.08. 1:00 1015 + 0,2
Di, 11.08. 0:30 1015 + 0,6
Di, 11.08. 0:00 1015 + 1,5
Mo, 10.08. 23:30 1015 + 1,9
Mo, 10.08. 23:00 1015 + 1,8
Ortszeit Schneehöhe (cm)
Di, 11.08. 2:00 -
Mo, 10.08. 20:00 -
Mo, 10.08. 14:00 -
Mo, 10.08. 8:00 -
Mo, 10.08. 2:00 -
So, 09.08. 20:00 -
So, 09.08. 14:00 -
So, 09.08. 8:00 -
Ortszeit Schneehöhe (cm)
Di, 11.08. 2:00 -
Di, 11.08. 1:50 -
Di, 11.08. 1:40 -
Di, 11.08. 1:30 -
Di, 11.08. 1:20 -
Di, 11.08. 1:10 -
Di, 11.08. 1:00 -
Di, 11.08. 0:30 -
Di, 11.08. 0:00 -
Mo, 10.08. 23:30 -
Mo, 10.08. 23:00 -
Link zu dieser Seite / Seite empfehlen

Das Wetter in ...